Time;durP1;ratioP1;P1;durP2;ratioP2;P2;SDS_P1;SDS_P2;PMS_P1;PMS_P2;Temp;Humidity;BMP_temperature;BMP_pressure;BME280_temperature;BME280_humidity;BME280_pressure;Samples;Min_cycle;Max_cycle;Signal;HPM_P1;HPM_P2
2022/03/24 00:02:11;;;;;;;;;52.25;41.75;;;;;15.50;32.58;101995.09;5061860;27;45453;-66
2022/03/24 00:04:37;;;;;;;;;50.50;39.50;;;;;15.49;32.27;102009.25;5064241;27;45546;-68
2022/03/24 00:07:03;;;;;;;;;45.25;37.25;;;;;15.46;32.29;101996.97;5057768;27;45371;-64
2022/03/24 00:09:29;;;;;;;;;39.75;36.00;;;;;15.44;32.31;102000.59;5065827;27;45450;-67
2022/03/24 00:11:55;;;;;;;;;48.25;39.25;;;;;15.44;33.13;101993.50;5075792;27;45425;-67
2022/03/24 00:14:21;;;;;;;;;45.25;38.25;;;;;15.43;32.49;101993.56;5068601;27;45497;-64
2022/03/24 00:16:46;;;;;;;;;39.25;34.00;;;;;15.43;32.01;101998.84;5068469;27;45636;-65
2022/03/24 00:19:11;;;;;;;;;41.25;37.00;;;;;15.41;31.84;101992.72;5072505;27;46169;-68
2022/03/24 00:21:37;;;;;;;;;44.00;38.25;;;;;15.37;32.18;101997.28;5061711;27;45555;-64
2022/03/24 00:24:03;;;;;;;;;46.00;37.25;;;;;15.36;32.36;101998.19;5064310;27;45548;-68
2022/03/24 00:26:29;;;;;;;;;41.50;37.75;;;;;15.33;31.72;101998.28;5057556;27;45617;-64
2022/03/24 00:28:54;;;;;;;;;43.50;37.50;;;;;15.32;31.19;101995.69;5062276;27;45428;-67
2022/03/24 00:31:20;;;;;;;;;42.00;37.50;;;;;15.30;32.40;101993.09;5061469;27;45395;-64
2022/03/24 00:33:45;;;;;;;;;44.00;37.50;;;;;15.30;31.94;101993.09;5071081;27;45578;-65
2022/03/24 00:36:11;;;;;;;;;44.50;37.00;;;;;15.30;31.82;101986.94;5058263;27;45549;-66
2022/03/24 00:38:37;;;;;;;;;39.25;33.00;;;;;15.28;30.90;101986.97;5057061;27;46080;-66
2022/03/24 00:41:03;;;;;;;;;47.25;36.50;;;;;15.24;31.09;101986.22;5057239;27;45611;-67
2022/03/24 00:43:30;;;;;;;;;35.25;33.25;;;;;15.23;31.96;101987.13;5062572;27;45378;-65
2022/03/24 00:45:55;;;;;;;;;39.00;34.75;;;;;15.21;31.93;101972.19;5075981;27;45372;-65
2022/03/24 00:48:20;;;;;;;;;18.00;11.50;;;;;15.22;30.88;101981.88;5059577;27;46458;-67
2022/03/24 00:50:46;;;;;;;;;38.50;32.75;;;;;15.19;30.33;101974.88;5061638;27;45532;-65
2022/03/24 00:53:11;;;;;;;;;40.50;33.75;;;;;15.18;30.85;101978.47;5064353;27;45530;-67
2022/03/24 00:55:39;;;;;;;;;42.00;35.00;;;;;15.16;30.92;101967.03;5056440;28;45461;-66
2022/03/24 00:58:04;;;;;;;;;36.75;33.50;;;;;15.16;31.32;101982.09;5055310;28;45574;-67
2022/03/24 01:00:30;;;;;;;;;35.50;31.75;;;;;15.13;31.67;101972.44;5055379;28;45376;-67
2022/03/24 01:02:57;;;;;;;;;39.75;35.25;;;;;15.13;31.38;101969.78;5057323;27;45387;-63
2022/03/24 01:05:31;;;;;;;;;38.75;35.25;;;;;15.09;31.37;101970.78;5076911;27;45471;-66
2022/03/24 01:07:56;;;;;;;;;39.75;35.75;;;;;15.10;31.04;101969.91;5073932;27;45472;-67
2022/03/24 01:10:22;;;;;;;;;36.50;32.75;;;;;15.09;32.03;101973.44;5060871;27;45398;-67
2022/03/24 01:12:49;;;;;;;;;41.25;35.50;;;;;15.09;30.79;101959.34;5056427;28;45510;-63
2022/03/24 01:15:18;;;;;;;;;40.00;35.25;;;;;15.07;30.91;101962.06;5062922;27;45670;-63
2022/03/24 01:17:44;;;;;;;;;37.00;33.25;;;;;15.07;30.63;101963.81;5056310;28;45445;-65
2022/03/24 01:20:11;;;;;;;;;41.50;34.25;;;;;15.07;31.42;101961.16;5056253;28;45429;-64
2022/03/24 01:22:36;;;;;;;;;38.67;34.00;;;;;15.06;31.47;101957.66;5065179;27;45328;-66
2022/03/24 01:25:03;;;;;;;;;37.75;30.75;;;;;15.06;31.01;101962.09;5056135;28;45370;-63
2022/03/24 01:27:28;;;;;;;;;39.75;34.75;;;;;15.03;31.17;101963.91;5072990;28;45404;-65
2022/03/24 01:29:55;;;;;;;;;33.00;31.67;;;;;15.03;31.27;101963.06;5075412;27;45370;-65
2022/03/24 01:32:21;;;;;;;;;36.75;33.25;;;;;15.01;31.75;101968.38;5075190;27;45485;-65
2022/03/24 01:34:48;;;;;;;;;40.25;35.00;;;;;15.01;31.28;101964.88;5076359;27;45483;-68
2022/03/24 01:37:14;;;;;;;;;37.75;33.75;;;;;14.98;31.16;101960.53;5067051;28;46218;-67
2022/03/24 01:39:39;;;;;;;;;42.25;35.25;;;;;15.00;31.43;101963.16;5071625;27;45504;-67
2022/03/24 01:42:05;;;;;;;;;39.50;35.50;;;;;14.98;31.56;101963.19;5076205;27;45449;-67
2022/03/24 01:44:31;;;;;;;;;28.25;27.50;;;;;14.99;31.85;101951.69;5061045;27;45541;-67
2022/03/24 01:47:07;;;;;;;;;36.75;32.25;;;;;14.97;32.28;101957.97;5074336;28;45986;-64
2022/03/24 01:49:42;;;;;;;;;41.75;34.00;;;;;14.98;31.99;101954.38;5074754;28;45444;-66
2022/03/24 01:52:13;;;;;;;;;37.25;34.50;;;;;14.95;31.37;101954.47;5057322;27;45343;-64
2022/03/24 01:54:44;;;;;;;;;37.25;33.50;;;;;14.95;31.49;101943.88;5056163;27;45424;-64
2022/03/24 01:57:11;;;;;;;;;37.25;33.50;;;;;14.93;31.50;101951.88;5060529;27;46214;-64
2022/03/24 01:59:38;;;;;;;;;41.00;35.50;;;;;14.91;31.84;101948.44;5074229;27;45520;-64
2022/03/24 02:02:10;;;;;;;;;42.50;34.75;;;;;14.90;31.72;101949.31;5058328;28;45500;-64
2022/03/24 02:04:36;;;;;;;;;41.75;33.75;;;;;14.87;32.14;101941.47;5072149;27;45457;-69
2022/03/24 02:07:02;;;;;;;;;37.50;34.75;;;;;14.88;32.31;101943.19;5055480;28;46138;-67
2022/03/24 02:09:28;;;;;;;;;41.25;35.00;;;;;14.87;31.81;101936.19;5071655;27;45453;-64
2022/03/24 02:11:54;;;;;;;;;41.50;34.25;;;;;14.87;32.18;101941.47;5066962;27;45529;-68
2022/03/24 02:14:20;;;;;;;;;37.25;34.50;;;;;14.85;32.21;101932.69;5075865;27;45502;-68
2022/03/24 02:16:48;;;;;;;;;38.50;34.75;;;;;14.85;31.51;101942.44;5064045;27;45426;-65
2022/03/24 02:19:21;;;;;;;;;38.25;35.25;;;;;14.84;31.94;101938.94;5063228;28;45469;-67
2022/03/24 02:21:49;;;;;;;;;42.00;37.25;;;;;14.82;32.00;101940.75;5056151;27;45443;-64
2022/03/24 02:24:17;;;;;;;;;41.00;36.00;;;;;14.82;31.73;101942.53;5055254;28;45648;-66
2022/03/24 02:26:44;;;;;;;;;35.50;32.50;;;;;14.79;32.00;101941.72;5055061;28;46190;-64
2022/03/24 02:29:14;;;;;;;;;43.25;35.50;;;;;14.75;31.59;101933.94;5064392;27;45399;-68
2022/03/24 02:31:42;;;;;;;;;36.50;34.50;;;;;14.77;31.71;101943.53;5066494;27;45496;-68
2022/03/24 02:36:54;;;;;;;;;34.25;32.75;;;;;14.75;31.73;101934.78;5067176;27;45377;-65
2022/03/24 02:39:20;;;;;;;;;36.50;33.50;;;;;14.76;31.93;101938.31;5055199;28;45442;-66
2022/03/24 02:41:46;;;;;;;;;34.50;32.25;;;;;14.74;32.80;101930.41;5055002;28;45434;-64
2022/03/24 02:44:14;;;;;;;;;34.75;32.75;;;;;14.72;32.46;101932.25;5070550;28;45436;-66
2022/03/24 02:46:43;;;;;;;;;38.25;35.25;;;;;14.73;32.46;101931.31;5065517;27;45932;-65
2022/03/24 02:49:09;;;;;;;;;37.75;34.50;;;;;14.72;31.76;101932.25;5075262;27;45518;-67
2022/03/24 02:51:35;;;;;;;;;33.00;31.50;;;;;14.71;32.13;101934.94;5063327;27;45670;-65
2022/03/24 02:54:00;;;;;;;;;35.75;32.25;;;;;14.70;32.44;101933.22;5055574;27;45426;-67
2022/03/24 02:56:25;;;;;;;;;34.00;30.00;;;;;14.67;32.27;101936.81;5058178;27;46011;-64
2022/03/24 02:58:51;;;;;;;;;39.50;33.75;;;;;14.66;32.24;101931.56;5054795;28;45379;-66
2022/03/24 03:01:18;;;;;;;;;40.50;35.00;;;;;14.65;32.47;101936.00;5055883;27;45367;-66
2022/03/24 03:03:43;;;;;;;;;40.25;35.25;;;;;14.64;32.45;101941.31;5055186;27;45529;-68
2022/03/24 03:06:09;;;;;;;;;39.00;34.00;;;;;14.63;32.88;101936.94;5071997;27;46987;-69
2022/03/24 03:08:34;;;;;;;;;32.00;27.50;;;;;14.62;32.59;101938.75;5067636;28;45429;-64
2022/03/24 03:11:00;;;;;;;;;36.00;34.00;;;;;14.60;32.17;101935.25;5058185;28;45413;-67
2022/03/24 03:13:27;;;;;;;;;37.75;32.25;;;;;14.58;32.16;101940.59;5061898;27;45627;-66
2022/03/24 03:15:52;;;;;;;;;38.75;35.00;;;;;14.58;31.92;101937.09;5076171;27;46166;-64
2022/03/24 03:18:18;;;;;;;;;40.50;35.00;;;;;14.57;32.34;101941.53;5076806;27;45560;-69
2022/03/24 03:20:45;;;;;;;;;39.50;32.50;;;;;14.56;32.12;101934.50;5070181;27;45824;-69
2022/03/24 03:23:10;;;;;;;;;37.00;34.50;;;;;14.51;32.29;101927.59;5070214;28;45454;-68
2022/03/24 03:25:37;;;;;;;;;40.00;36.00;;;;;14.55;32.52;101939.84;5073719;28;46310;-67
2022/03/24 03:28:02;;;;;;;;;39.25;34.75;;;;;14.53;32.58;101937.25;5078211;28;45334;-65
2022/03/24 03:30:28;;;;;;;;;43.25;34.25;;;;;14.48;32.75;101931.19;5068315;27;45446;-64
2022/03/24 03:32:53;;;;;;;;;38.00;34.75;;;;;14.53;32.94;101937.25;5058239;27;45498;-65
2022/03/24 03:35:18;;;;;;;;;38.50;35.00;;;;;14.54;32.41;101940.75;5058171;27;45363;-68
2022/03/24 03:37:44;;;;;;;;;43.50;36.75;;;;;14.52;32.72;101935.50;5057948;28;45411;-67
2022/03/24 03:40:10;;;;;;;;;44.50;37.00;;;;;14.53;32.46;101949.59;5062509;27;45405;-68
2022/03/24 03:42:35;;;;;;;;;37.75;34.25;;;;;14.50;32.57;101939.94;5066329;28;45650;-65
2022/03/24 03:45:01;;;;;;;;;40.25;34.75;;;;;14.48;33.04;101936.47;5057552;28;45407;-65
2022/03/24 03:47:27;;;;;;;;;36.00;33.50;;;;;14.48;33.42;101946.19;5058912;27;45388;-68
2022/03/24 03:49:53;;;;;;;;;42.25;35.25;;;;;14.41;32.95;101932.28;5076353;27;45551;-67
2022/03/24 03:52:18;;;;;;;;;39.75;34.25;;;;;14.47;33.19;101942.66;5057418;28;45532;-65
2022/03/24 03:54:44;;;;;;;;;38.00;34.50;;;;;14.45;33.10;101941.84;5057864;28;46385;-66
2022/03/24 03:57:10;;;;;;;;;41.50;36.75;;;;;14.44;33.57;101939.25;5064844;27;45445;-67
2022/03/24 03:59:38;;;;;;;;;42.75;36.25;;;;;14.43;33.28;101937.53;5058223;28;45441;-69
2022/03/24 04:02:03;;;;;;;;;41.00;35.00;;;;;14.43;33.68;101930.47;5057678;28;45469;-69
2022/03/24 04:04:29;;;;;;;;;36.00;34.75;;;;;14.43;33.74;101940.19;5075831;27;45453;-64
2022/03/24 04:06:54;;;;;;;;;39.75;35.25;;;;;14.42;33.40;101934.00;5063078;27;45324;-66
2022/03/24 04:09:19;;;;;;;;;37.50;33.75;;;;;14.42;33.88;101933.13;5076217;27;45413;-66
2022/03/24 04:11:46;;;;;;;;;23.50;23.25;;;;;14.39;33.70;101934.09;5071835;27;45519;-66
2022/03/24 04:14:12;;;;;;;;;37.75;34.00;;;;;14.38;33.87;101931.50;5055885;28;46257;-67
2022/03/24 04:16:37;;;;;;;;;41.00;34.75;;;;;14.37;34.16;101935.91;5066988;28;45493;-66
2022/03/24 04:19:05;;;;;;;;;38.75;32.50;;;;;14.36;33.96;101935.06;5074772;27;45440;-69
2022/03/24 04:21:30;;;;;;;;;44.75;37.25;;;;;14.35;33.61;101930.69;5057763;27;45401;-65
2022/03/24 04:23:56;;;;;;;;;43.75;36.00;;;;;14.34;33.74;101928.94;5057365;28;45458;-65
2022/03/24 04:26:22;;;;;;;;;40.50;35.00;;;;;14.33;33.48;101929.00;5057786;27;45365;-64
2022/03/24 04:28:48;;;;;;;;;40.75;36.50;;;;;14.27;33.69;101930.03;5057195;28;45400;-69
2022/03/24 04:31:13;;;;;;;;;39.25;34.25;;;;;14.30;33.94;101929.94;5057775;27;45652;-65
2022/03/24 04:33:39;;;;;;;;;40.00;36.50;;;;;14.29;33.59;101925.56;5057469;28;45406;-64
2022/03/24 04:36:08;;;;;;;;;35.25;34.00;;;;;14.29;34.10;101930.88;5057347;27;45441;-67
2022/03/24 04:38:37;;;;;;;;;37.00;35.00;;;;;14.28;34.07;101931.75;5057122;28;45420;-66
2022/03/24 04:41:04;;;;;;;;;39.00;35.75;;;;;14.29;34.03;101932.63;5057096;27;45437;-65
2022/03/24 04:43:30;;;;;;;;;36.75;33.50;;;;;14.28;34.32;101926.47;5056708;28;45419;-66
2022/03/24 04:45:56;;;;;;;;;39.75;36.00;;;;;14.28;34.82;101934.41;5063267;27;46788;-67
2022/03/24 04:48:22;;;;;;;;;39.25;35.25;;;;;14.26;34.60;101933.59;5065315;28;45413;-67
2022/03/24 04:50:47;;;;;;;;;42.50;36.50;;;;;14.26;34.12;101930.94;5062365;27;45452;-65
2022/03/24 04:53:15;;;;;;;;;46.25;38.25;;;;;14.25;34.16;101925.72;5097227;27;45512;-66
2022/03/24 04:55:42;;;;;;;;;39.25;35.00;;;;;14.22;34.30;101929.31;5069810;27;45410;-69
2022/03/24 04:58:08;;;;;;;;;38.75;35.50;;;;;14.22;34.77;101928.44;5056447;28;45418;-66
2022/03/24 05:00:34;;;;;;;;;32.75;32.00;;;;;14.22;34.59;101924.00;5058179;27;45532;-65
2022/03/24 05:02:59;;;;;;;;;27.50;27.00;;;;;14.21;34.62;101924.03;5056534;28;46306;-67
2022/03/24 05:05:25;;;;;;;;;39.25;34.25;;;;;14.20;34.46;101922.31;5056777;27;45378;-65
2022/03/24 05:07:50;;;;;;;;;44.50;38.50;;;;;14.20;34.92;101930.25;5056179;28;45372;-68
2022/03/24 05:10:16;;;;;;;;;35.75;33.00;;;;;14.19;34.76;101925.91;5056313;28;45433;-64
2022/03/24 05:12:42;;;;;;;;;28.00;26.00;;;;;14.18;34.29;101924.13;5069494;27;46016;-64
2022/03/24 05:15:09;;;;;;;;;39.25;35.75;;;;;14.17;34.75;101922.41;5062714;27;45433;-67
2022/03/24 05:17:35;;;;;;;;;45.75;34.75;;;;;14.15;34.99;101923.31;5076352;27;45494;-64
2022/03/24 05:20:00;;;;;;;;;38.25;34.75;;;;;14.13;34.67;101925.16;5061979;27;45619;-66
2022/03/24 05:22:26;;;;;;;;;34.25;30.75;;;;;14.12;34.96;101925.19;5072146;27;45410;-67
2022/03/24 05:24:52;;;;;;;;;38.00;35.00;;;;;14.11;34.41;101926.97;5064310;27;45446;-67
2022/03/24 05:27:17;;;;;;;;;37.75;35.00;;;;;14.10;34.84;101932.28;5055636;27;45691;-63
2022/03/24 05:29:43;;;;;;;;;36.75;33.00;;;;;14.08;34.98;101921.78;5056458;27;45511;-68
2022/03/24 05:32:09;;;;;;;;;40.50;37.00;;;;;14.10;34.98;101929.66;5066956;27;45971;-67
2022/03/24 05:34:34;;;;;;;;;37.25;34.75;;;;;14.09;35.44;101935.88;5070214;27;45790;-65
2022/03/24 05:36:59;;;;;;;;;37.25;35.50;;;;;14.08;34.99;101931.50;5076424;27;45554;-64
2022/03/24 05:39:25;;;;;;;;;38.00;35.50;;;;;14.07;34.70;101927.09;5076358;27;45449;-63
2022/03/24 05:41:50;;;;;;;;;43.50;36.50;;;;;14.08;34.89;101931.50;5063127;27;45993;-66
2022/03/24 05:44:15;;;;;;;;;38.00;34.75;;;;;14.08;34.83;101940.28;5065201;27;45629;-67
2022/03/24 05:46:44;;;;;;;;;39.25;35.25;;;;;14.07;35.38;101924.44;5074787;27;45563;-65
2022/03/24 05:49:15;;;;;;;;;40.25;32.25;;;;;14.07;35.40;101933.25;5074417;27;45526;-67
2022/03/24 05:51:44;;;;;;;;;40.50;35.00;;;;;14.06;35.21;101930.66;5073372;27;46015;-67
2022/03/24 05:54:16;;;;;;;;;44.75;35.00;;;;;14.05;35.06;101936.84;5056870;27;45443;-66
2022/03/24 05:56:42;;;;;;;;;35.00;34.00;;;;;14.05;35.18;101934.19;5074647;27;45506;-68
2022/03/24 05:59:08;;;;;;;;;35.25;33.50;;;;;14.04;35.43;101933.34;5070688;27;45529;-68
2022/03/24 06:01:34;;;;;;;;;31.50;30.75;;;;;14.04;35.40;101940.41;5069316;28;45547;-67
2022/03/24 06:04:00;;;;;;;;;42.50;36.75;;;;;14.04;35.27;101946.56;5070408;27;45728;-68
2022/03/24 06:06:26;;;;;;;;;41.00;35.75;;;;;14.03;35.65;101942.19;5056598;27;45449;-70
2022/03/24 06:08:53;;;;;;;;;36.00;34.50;;;;;14.02;35.52;101942.22;5055424;28;45454;-66
2022/03/24 06:11:19;;;;;;;;;39.50;36.00;;;;;14.01;35.15;101938.72;5057640;27;45583;-67
2022/03/24 06:13:46;;;;;;;;;39.50;34.00;;;;;14.00;35.59;101942.28;5067554;27;45458;-64
2022/03/24 06:16:13;;;;;;;;;38.75;33.25;;;;;14.00;35.86;101942.28;5068985;27;45458;-67
2022/03/24 06:18:39;;;;;;;;;42.00;36.25;;;;;14.01;35.33;101943.16;5071782;27;45469;-67
2022/03/24 06:21:04;;;;;;;;;41.00;35.75;;;;;14.01;35.74;101944.00;5075288;28;45421;-68
2022/03/24 06:23:30;;;;;;;;;41.75;35.25;;;;;14.00;35.91;101944.94;5072965;27;45506;-68
2022/03/24 06:25:55;;;;;;;;;35.25;33.25;;;;;14.00;35.50;101952.00;5059414;27;45466;-70
2022/03/24 06:28:20;;;;;;;;;46.25;38.50;;;;;13.99;35.63;101952.91;5055120;28;45421;-65
2022/03/24 06:30:46;;;;;;;;;43.50;38.00;;;;;13.98;35.35;101945.88;5060463;28;46076;-66
2022/03/24 06:33:11;;;;;;;;;45.25;35.50;;;;;13.96;35.23;101943.28;5067104;27;45375;-64
2022/03/24 06:35:37;;;;;;;;;41.50;37.50;;;;;13.94;35.28;101942.44;5058644;27;45470;-66
2022/03/24 06:38:03;;;;;;;;;37.00;32.50;;;;;13.92;35.56;101949.56;5075397;28;45457;-66
2022/03/24 06:40:28;;;;;;;;;42.75;36.75;;;;;13.90;35.34;101949.59;5068831;27;45974;-65
2022/03/24 06:42:54;;;;;;;;;40.50;35.75;;;;;13.90;35.88;101948.75;5075178;27;45542;-60
2022/03/24 06:45:20;;;;;;;;;43.25;38.25;;;;;13.91;35.78;101947.81;5073616;27;45545;-64
2022/03/24 06:47:45;;;;;;;;;38.00;35.50;;;;;13.92;35.38;101950.44;5067319;27;45668;-63
2022/03/24 06:50:15;;;;;;;;;46.75;35.25;;;;;13.92;35.60;101946.94;5071198;27;45514;-63
2022/03/24 06:52:42;;;;;;;;;41.25;35.25;;;;;13.94;35.69;101953.03;5058439;28;45426;-62
2022/03/24 06:55:08;;;;;;;;;46.50;40.00;;;;;13.93;35.69;101949.50;5058689;28;45437;-62
2022/03/24 06:57:35;;;;;;;;;46.75;37.50;;;;;13.97;35.56;101952.97;5068402;27;45580;-64
2022/03/24 07:00:01;;;;;;;;;48.00;37.75;;;;;13.98;35.37;101957.31;5077581;27;46197;-61
2022/03/24 07:02:26;;;;;;;;;45.50;36.50;;;;;14.01;35.76;101966.97;5079189;27;45597;-63
2022/03/24 07:04:51;;;;;;;;;39.50;33.50;;;;;14.02;35.82;101961.59;5087893;27;45473;-61
2022/03/24 07:07:17;;;;;;;;;40.75;36.50;;;;;14.04;35.47;101964.22;5077083;28;45708;-64
2022/03/24 07:09:43;;;;;;;;;38.75;35.75;;;;;14.05;35.30;101958.00;5072437;27;46129;-63
2022/03/24 07:12:08;;;;;;;;;48.75;37.75;;;;;14.07;35.56;101961.50;5072855;27;45434;-62
2022/03/24 07:14:34;;;;;;;;;40.50;36.25;;;;;14.07;35.49;101965.00;5077841;28;45555;-62
2022/03/24 07:16:59;;;;;;;;;43.75;37.25;;;;;14.11;35.55;101957.84;5064673;27;45531;-63
2022/03/24 07:19:24;;;;;;;;;46.00;39.25;;;;;14.12;35.53;101963.09;5059591;27;46285;-61
2022/03/24 07:21:50;;;;;;;;;39.75;36.00;;;;;14.14;35.66;101953.34;5058268;27;45465;-63
2022/03/24 07:24:15;;;;;;;;;40.50;37.25;;;;;14.16;35.93;101955.94;5061496;27;45319;-63
2022/03/24 07:26:41;;;;;;;;;43.75;35.50;;;;;14.16;35.81;101958.59;5058209;28;45583;-61
2022/03/24 07:29:06;;;;;;;;;41.75;37.00;;;;;14.21;35.68;101953.16;5069610;27;46639;-63
2022/03/24 07:31:32;;;;;;;;;48.75;40.50;;;;;14.23;35.88;101956.63;5067640;27;45481;-62
2022/03/24 07:33:58;;;;;;;;;47.75;36.50;;;;;14.26;35.17;101973.28;5057925;27;45628;-63
2022/03/24 07:36:25;;;;;;;;;46.50;39.25;;;;;14.29;35.86;101974.97;5070965;27;45512;-61
2022/03/24 07:38:55;;;;;;;;;47.00;36.50;;;;;14.30;35.06;101977.59;5077735;27;46229;-62
2022/03/24 07:41:21;;;;;;;;;48.00;39.00;;;;;14.31;35.21;101976.66;5071394;27;45381;-62
2022/03/24 07:43:47;;;;;;;;;47.25;39.25;;;;;14.33;35.33;101982.78;5057897;27;45457;-63
2022/03/24 07:46:12;;;;;;;;;46.25;40.00;;;;;14.34;34.82;101973.91;5067282;27;45602;-62
2022/03/24 07:48:38;;;;;;;;;42.50;37.50;;;;;14.36;35.31;101977.41;5058335;27;45423;-63
2022/03/24 07:51:05;;;;;;;;;49.50;42.00;;;;;14.38;35.11;101976.50;5065927;27;45485;-61
2022/03/24 07:53:49;;;;;;;;;43.50;38.50;;;;;14.40;35.62;101980.84;5079781;27;45377;-62
2022/03/24 07:56:19;;;;;;;;;50.50;40.75;;;;;14.42;35.37;101983.44;5077398;27;45533;-63
2022/03/24 07:58:45;;;;;;;;;43.50;38.00;;;;;14.42;35.07;101983.44;5063174;27;45627;-62
2022/03/24 08:01:12;;;;;;;;;46.25;39.00;;;;;14.44;35.05;101979.81;5069435;27;45660;-63
2022/03/24 08:03:37;;;;;;;;;47.25;38.75;;;;;14.44;35.08;101979.81;5077749;27;45503;-61
2022/03/24 08:06:03;;;;;;;;;43.25;37.75;;;;;14.48;34.80;101983.25;5073815;27;45481;-62
2022/03/24 08:08:29;;;;;;;;;49.00;38.50;;;;;14.51;34.77;101991.13;5076527;27;46844;-61
2022/03/24 08:10:55;;;;;;;;;48.50;38.75;;;;;14.53;35.21;101986.66;5065205;27;45498;-61
2022/03/24 08:13:21;;;;;;;;;50.00;41.25;;;;;14.54;34.33;101991.91;5062924;27;45442;-62
2022/03/24 08:15:48;;;;;;;;;48.25;40.50;;;;;14.56;34.84;101986.56;5058334;27;45426;-61
2022/03/24 08:18:15;;;;;;;;;49.00;41.25;;;;;14.59;35.02;101994.44;5057533;27;46121;-62
2022/03/24 08:20:42;;;;;;;;;53.25;43.00;;;;;14.61;34.17;101992.59;5057259;27;45419;-63
2022/03/24 08:23:11;;;;;;;;;51.50;42.25;;;;;14.63;34.50;101988.13;5057275;27;45364;-63
2022/03/24 08:25:42;;;;;;;;;45.75;39.75;;;;;14.66;34.81;101988.03;5068724;27;45561;-61
2022/03/24 08:28:10;;;;;;;;;49.75;40.00;;;;;14.69;34.51;101993.22;5069209;27;46009;-63
2022/03/24 08:30:35;;;;;;;;;48.75;41.00;;;;;14.73;34.33;101994.88;5064870;27;45465;-63
2022/03/24 08:33:00;;;;;;;;;47.75;40.00;;;;;14.73;33.97;101996.66;5073009;27;45296;-63
2022/03/24 08:35:26;;;;;;;;;39.25;35.00;;;;;14.73;33.60;101994.03;5075479;27;45653;-61
2022/03/24 08:37:51;;;;;;;;;51.75;43.25;;;;;14.77;33.44;101990.34;5076838;27;45407;-62
2022/03/24 08:40:17;;;;;;;;;49.00;38.75;;;;;14.78;32.49;101992.09;5062683;27;45436;-61
2022/03/24 08:42:44;;;;;;;;;40.00;36.25;;;;;14.80;32.51;101996.44;5075103;27;45588;-63
2022/03/24 08:45:12;;;;;;;;;40.00;34.50;;;;;14.83;33.15;101994.59;5056887;27;45534;-63
2022/03/24 08:47:38;;;;;;;;;34.00;32.50;;;;;14.84;32.16;101991.91;5057818;28;46041;-61
2022/03/24 08:50:06;;;;;;;;;35.75;33.25;;;;;14.86;31.70;101998.03;5077014;27;45432;-63
2022/03/24 08:52:31;;;;;;;;;33.75;31.75;;;;;14.91;32.10;102005.81;5065151;27;45536;-64
2022/03/24 08:54:57;;;;;;;;;38.00;34.00;;;;;14.94;32.12;102000.44;5056477;28;45469;-62
2022/03/24 08:57:26;;;;;;;;;41.50;34.50;;;;;14.97;31.62;102005.66;5069572;27;45575;-62
2022/03/24 08:59:55;;;;;;;;;34.25;31.25;;;;;15.00;31.94;102010.84;5061172;27;45437;-63
2022/03/24 09:02:21;;;;;;;;;37.25;34.00;;;;;15.04;32.04;102007.16;5065019;27;45605;-63
2022/03/24 09:04:50;;;;;;;;;43.00;38.00;;;;;15.05;31.90;102003.63;5057156;28;45471;-62
2022/03/24 09:07:16;;;;;;;;;38.75;35.25;;;;;15.08;31.66;102003.53;5076334;28;45454;-61
2022/03/24 09:09:42;;;;;;;;;44.00;34.00;;;;;15.11;31.03;102013.16;5059046;27;45497;-62
2022/03/24 09:12:11;;;;;;;;;43.25;35.00;;;;;15.13;31.47;102004.25;5057447;27;45381;-61
2022/03/24 09:14:38;;;;;;;;;43.00;36.00;;;;;15.16;32.09;102014.75;5056167;27;45579;-62
2022/03/24 09:17:04;;;;;;;;;40.75;31.50;;;;;15.19;31.41;102016.44;5055726;28;45499;-63
2022/03/24 09:19:29;;;;;;;;;41.25;35.75;;;;;15.22;31.87;102009.25;5055891;28;45480;-62
2022/03/24 09:21:54;;;;;;;;;38.25;34.25;;;;;15.23;31.52;102012.75;5063437;27;45384;-63
2022/03/24 09:24:20;;;;;;;;;32.33;29.67;;;;;15.27;31.54;102009.09;5054632;28;45447;-62
2022/03/24 09:26:45;;;;;;;;;38.00;32.50;;;;;15.31;32.08;102009.84;5056534;27;45560;-62
2022/03/24 09:29:11;;;;;;;;;41.25;36.75;;;;;15.33;31.91;102008.88;5073329;27;45532;-63
2022/03/24 09:31:36;;;;;;;;;39.75;35.00;;;;;15.35;31.48;102012.38;5069478;27;45988;-63
2022/03/24 09:34:03;;;;;;;;;35.75;30.75;;;;;15.38;31.25;102009.59;5059495;27;47412;-62
2022/03/24 09:36:29;;;;;;;;;35.25;32.50;;;;;15.42;31.64;102013.00;5056257;28;45420;-62
2022/03/24 09:38:54;;;;;;;;;37.25;34.25;;;;;15.45;31.69;102018.25;5057461;27;45429;-61
2022/03/24 09:41:20;;;;;;;;;42.00;34.00;;;;;15.49;32.00;102019.84;5056528;27;45536;-63
2022/03/24 09:43:47;;;;;;;;;41.50;36.50;;;;;15.50;31.64;102016.31;5056528;27;45431;-61
2022/03/24 09:46:13;;;;;;;;;41.50;37.00;;;;;15.53;31.57;102017.97;5055884;27;46317;-62
2022/03/24 09:48:41;;;;;;;;;46.50;37.50;;;;;15.54;31.65;102012.63;5055484;28;45467;-63
2022/03/24 09:51:06;;;;;;;;;43.25;35.25;;;;;15.55;32.03;102002.88;5054824;27;45506;-61
2022/03/24 09:53:31;;;;;;;;;48.00;39.50;;;;;15.60;31.69;102012.41;5068685;27;45308;-61
2022/03/24 09:55:57;;;;;;;;;41.00;34.75;;;;;15.63;31.97;102004.34;5072943;27;45921;-62
2022/03/24 09:58:26;;;;;;;;;44.75;35.50;;;;;15.67;31.54;102003.34;5070882;27;45487;-63
2022/03/24 10:00:52;;;;;;;;;42.50;34.75;;;;;15.72;31.33;101999.72;5060274;27;45563;-62
2022/03/24 10:03:21;;;;;;;;;45.25;38.25;;;;;15.73;31.31;101996.13;5058229;27;45625;-62
2022/03/24 10:06:12;;;;;;;;;42.00;35.25;;;;;15.77;31.11;101997.72;5054861;27;48148;-62
2022/03/24 10:08:38;;;;;;;;;45.25;38.50;;;;;15.79;30.98;102002.06;5053851;28;45510;-63
2022/03/24 10:11:08;;;;;;;;;42.50;34.50;;;;;15.87;31.17;101997.34;5058673;27;45420;-63
2022/03/24 10:13:58;;;;;;;;;44.25;38.75;;;;;16.08;31.59;101997.53;5057069;27;45551;-63
2022/03/24 10:16:32;;;;;;;;;43.67;35.67;;;;;16.33;31.31;101993.06;5055762;27;47112;-63
2022/03/24 10:19:03;;;;;;;;;47.75;38.00;;;;;16.57;31.72;101993.91;5058947;27;45355;-63
2022/03/24 10:21:29;;;;;;;;;46.75;38.50;;;;;16.68;30.37;101988.19;5067605;27;45517;-63
2022/03/24 10:23:57;;;;;;;;;50.50;40.25;;;;;16.71;30.92;101985.44;5059214;27;45336;-62
2022/03/24 10:26:38;;;;;;;;;41.33;36.33;;;;;16.77;30.57;101992.34;5068994;27;46088;-64
2022/03/24 10:29:03;;;;;;;;;47.00;40.00;;;;;16.91;30.40;101990.00;5074910;27;45410;-64
2022/03/24 10:31:36;;;;;;;;;46.00;39.75;;;;;16.98;30.29;101988.81;5065309;27;45358;-61
2022/03/24 10:34:02;;;;;;;;;45.00;38.25;;;;;17.06;29.97;101985.88;5058816;27;45375;-61
2022/03/24 10:36:28;;;;;;;;;48.50;41.00;;;;;17.12;29.84;101988.28;5059683;27;45947;-60
2022/03/24 10:39:04;;;;;;;;;50.50;38.75;;;;;17.15;29.37;101989.94;5064230;27;45970;-62
2022/03/24 10:41:32;;;;;;;;;37.75;34.25;;;;;17.12;30.11;101992.72;5060291;27;45379;-60
2022/03/24 10:44:03;;;;;;;;;45.25;37.00;;;;;17.05;29.84;101986.78;5071029;27;45562;-60
2022/03/24 10:46:31;;;;;;;;;43.00;35.25;;;;;17.01;29.76;101982.53;5073344;27;46038;-60
2022/03/24 10:48:58;;;;;;;;;43.67;36.33;;;;;16.98;29.20;101982.66;5073104;27;45454;-61
2022/03/24 10:51:31;;;;;;;;;44.00;38.25;;;;;16.96;30.17;101979.19;5067889;27;45583;-60
2022/03/24 10:54:28;;;;;;;;;34.67;31.67;;;;;16.93;30.33;101985.50;5066666;27;45445;-62
2022/03/24 10:57:15;;;;;;;;;37.33;34.00;;;;;16.91;30.35;101979.34;5070031;27;46738;-62
2022/03/24 10:59:46;;;;;;;;;42.50;35.25;;;;;16.91;30.06;101983.81;5078362;27;45483;-61
2022/03/24 11:02:13;;;;;;;;;44.25;36.50;;;;;16.88;30.23;101982.13;5063020;27;45486;-62
2022/03/24 11:04:39;;;;;;;;;39.67;34.00;;;;;16.87;30.82;101980.44;5067835;27;45555;-63
2022/03/24 11:07:04;;;;;;;;;43.00;34.67;;;;;16.89;30.84;101981.19;5059684;27;45409;-63
2022/03/24 11:09:32;;;;;;;;;45.33;38.33;;;;;16.91;29.83;101984.66;5060534;27;45538;-62
2022/03/24 11:12:25;;;;;;;;;41.33;35.67;;;;;16.92;30.63;101975.75;5064254;27;45546;-62